Time;durP1;ratioP1;P1;durP2;ratioP2;P2;SDS_P1;SDS_P2;PMS_P1;PMS_P2;Temp;Humidity;BMP_temperature;BMP_pressure;BME280_temperature;BME280_humidity;BME280_pressure;Samples;Min_cycle;Max_cycle;Signal;HPM_P1;HPM_P2
2021/09/25 00:11:00;;;;;;;12.90;5.70;;;;;;;;;;4966513;23;20332;-77
2021/09/25 00:13:27;;;;;;;12.77;5.50;;;;;;;;;;4977707;28;20686;-76
2021/09/25 00:15:55;;;;;;;8.87;4.67;;;;;;;;;;4963683;28;20976;-76
2021/09/25 00:18:22;;;;;;;9.70;5.40;;;;;;;;;;4958795;28;20237;-77
2021/09/25 00:20:49;;;;;;;9.37;5.57;;;;;;;;;;4961039;28;20762;-77
2021/09/25 00:23:16;;;;;;;14.53;6.30;;;;;;;;;;4957641;28;20293;-77
2021/09/25 00:25:44;;;;;;;13.07;6.80;;;;;;;;;;4956501;28;20625;-77
2021/09/25 00:28:12;;;;;;;13.33;6.87;;;;;;;;;;4961680;28;20572;-77
2021/09/25 00:30:40;;;;;;;8.23;5.10;;;;;;;;;;4962994;28;20930;-76
2021/09/25 00:33:07;;;;;;;8.03;5.27;;;;;;;;;;4958524;28;20724;-77
2021/09/25 00:35:34;;;;;;;10.17;5.37;;;;;;;;;;4958726;28;20221;-77
2021/09/25 00:38:01;;;;;;;11.53;5.07;;;;;;;;;;4959455;28;20645;-77
2021/09/25 00:40:28;;;;;;;15.00;6.40;;;;;;;;;;4956588;28;20205;-77
2021/09/25 00:42:55;;;;;;;9.33;5.17;;;;;;;;;;4959569;28;20216;-77
2021/09/25 00:45:26;;;;;;;8.87;5.40;;;;;;;;;;4956208;28;20222;-77
2021/09/25 00:47:53;;;;;;;10.27;5.70;;;;;;;;;;4957183;28;20881;-77
2021/09/25 00:50:20;;;;;;;14.73;7.37;;;;;;;;;;4960753;28;20202;-77
2021/09/25 00:52:47;;;;;;;17.20;8.77;;;;;;;;;;4957679;28;20206;-77
2021/09/25 00:55:15;;;;;;;14.60;8.10;;;;;;;;;;4958801;28;20232;-77
2021/09/25 00:57:44;;;;;;;13.17;5.60;;;;;;;;;;4961451;28;20209;-77
2021/09/25 01:00:11;;;;;;;9.83;5.17;;;;;;;;;;4958929;28;20206;-77
2021/09/25 01:02:39;;;;;;;9.63;4.83;;;;;;;;;;4960031;28;20214;-78
2021/09/25 01:05:07;;;;;;;11.57;5.40;;;;;;;;;;4959150;28;20222;-77
2021/09/25 01:07:34;;;;;;;8.70;5.40;;;;;;;;;;4962104;28;20221;-78
2021/09/25 01:10:02;;;;;;;11.50;5.27;;;;;;;;;;4962844;28;20199;-77
2021/09/25 01:12:29;;;;;;;10.43;5.30;;;;;;;;;;4963235;28;20302;-77
2021/09/25 01:14:56;;;;;;;12.87;5.07;;;;;;;;;;5013964;23;20229;-77
2021/09/25 01:17:23;;;;;;;12.97;5.57;;;;;;;;;;4966939;28;20296;-77
2021/09/25 01:19:52;;;;;;;10.57;6.07;;;;;;;;;;4970590;28;20344;-78
2021/09/25 01:22:21;;;;;;;10.23;5.20;;;;;;;;;;4970566;28;20218;-78
2021/09/25 01:24:48;;;;;;;9.77;4.87;;;;;;;;;;4969137;28;20303;-78
2021/09/25 01:27:15;;;;;;;7.80;5.23;;;;;;;;;;4964891;28;20258;-77
2021/09/25 01:29:42;;;;;;;13.87;5.83;;;;;;;;;;4965434;28;20583;-78
2021/09/25 01:32:10;;;;;;;13.57;5.90;;;;;;;;;;4964013;28;20300;-77
2021/09/25 01:34:37;;;;;;;8.77;5.07;;;;;;;;;;4964253;28;20285;-78
2021/09/25 01:37:06;;;;;;;10.20;5.53;;;;;;;;;;4964912;28;20213;-78
2021/09/25 01:39:34;;;;;;;14.13;5.97;;;;;;;;;;4965292;28;20218;-78
2021/09/25 01:42:02;;;;;;;11.70;5.80;;;;;;;;;;4963799;28;20206;-77
2021/09/25 01:44:29;;;;;;;9.83;5.33;;;;;;;;;;4962240;28;20296;-77
2021/09/25 01:46:57;;;;;;;13.07;5.60;;;;;;;;;;4965932;28;20216;-77
2021/09/25 01:49:25;;;;;;;10.93;5.00;;;;;;;;;;4966339;28;20236;-77
2021/09/25 01:51:52;;;;;;;15.97;6.27;;;;;;;;;;4965019;28;20223;-77
2021/09/25 01:54:19;;;;;;;9.73;5.77;;;;;;;;;;4963661;28;20205;-77
2021/09/25 01:56:48;;;;;;;10.07;5.60;;;;;;;;;;4963627;28;20264;-78
2021/09/25 01:59:15;;;;;;;9.37;5.57;;;;;;;;;;4962497;28;20213;-77
2021/09/25 02:01:42;;;;;;;9.57;5.43;;;;;;;;;;4962937;28;20212;-77
2021/09/25 02:04:10;;;;;;;10.80;5.60;;;;;;;;;;4964612;28;20210;-78
2021/09/25 02:06:37;;;;;;;10.13;5.03;;;;;;;;;;4966735;28;20599;-77
2021/09/25 02:09:04;;;;;;;9.93;5.70;;;;;;;;;;4962514;28;20225;-78
2021/09/25 02:11:31;;;;;;;10.30;5.57;;;;;;;;;;4963782;28;20213;-78
2021/09/25 02:14:00;;;;;;;10.13;5.87;;;;;;;;;;4963784;28;20203;-77
2021/09/25 02:16:27;;;;;;;9.60;5.60;;;;;;;;;;4960406;28;20316;-77
2021/09/25 02:18:54;;;;;;;9.33;4.83;;;;;;;;;;4962938;28;20224;-77
2021/09/25 02:21:21;;;;;;;8.43;5.10;;;;;;;;;;4962794;28;20205;-78
2021/09/25 02:23:49;;;;;;;11.17;5.17;;;;;;;;;;4965239;28;20571;-77
2021/09/25 02:26:16;;;;;;;9.60;5.03;;;;;;;;;;4963200;28;20604;-77
2021/09/25 02:28:43;;;;;;;12.53;5.40;;;;;;;;;;4963999;28;20232;-77
2021/09/25 02:31:12;;;;;;;12.57;5.93;;;;;;;;;;4967055;28;20208;-78
2021/09/25 02:33:39;;;;;;;18.20;6.77;;;;;;;;;;4960557;28;20225;-78
2021/09/25 02:36:06;;;;;;;11.87;6.30;;;;;;;;;;4965125;28;20254;-77
2021/09/25 02:38:33;;;;;;;10.57;5.97;;;;;;;;;;4964898;28;20209;-77
2021/09/25 02:41:00;;;;;;;11.47;5.57;;;;;;;;;;4968716;28;20217;-77
2021/09/25 02:43:27;;;;;;;10.13;5.53;;;;;;;;;;4962407;28;20563;-78
2021/09/25 02:45:55;;;;;;;15.57;5.33;;;;;;;;;;4965792;28;20253;-78
2021/09/25 02:48:23;;;;;;;8.53;4.77;;;;;;;;;;4976883;28;20348;-78
2021/09/25 02:50:50;;;;;;;9.47;4.23;;;;;;;;;;4974204;28;20237;-77
2021/09/25 02:53:17;;;;;;;8.30;4.57;;;;;;;;;;4966718;28;20296;-77
2021/09/25 02:55:45;;;;;;;10.73;4.70;;;;;;;;;;4962285;28;20225;-78
2021/09/25 02:58:12;;;;;;;6.63;4.03;;;;;;;;;;4964472;28;20197;-77
2021/09/25 03:00:39;;;;;;;7.37;4.20;;;;;;;;;;4963931;28;20329;-78
2021/09/25 03:03:06;;;;;;;8.83;4.60;;;;;;;;;;4963524;28;20209;-78
2021/09/25 03:05:35;;;;;;;13.33;5.27;;;;;;;;;;4963379;28;20260;-78
2021/09/25 03:08:02;;;;;;;11.60;4.60;;;;;;;;;;4968076;28;20695;-78
2021/09/25 03:10:29;;;;;;;9.27;5.07;;;;;;;;;;4963549;28;20757;-76
2021/09/25 03:12:56;;;;;;;10.57;5.10;;;;;;;;;;4975720;28;20273;-79
2021/09/25 03:15:24;;;;;;;8.77;4.90;;;;;;;;;;4973480;28;20321;-78
2021/09/25 03:17:51;;;;;;;12.17;4.40;;;;;;;;;;4963292;28;20205;-78
2021/09/25 03:20:18;;;;;;;13.30;4.67;;;;;;;;;;4964693;28;20210;-78
2021/09/25 03:22:46;;;;;;;7.33;4.10;;;;;;;;;;4962514;28;20297;-77
2021/09/25 03:25:14;;;;;;;8.37;4.27;;;;;;;;;;4963092;28;20604;-78
2021/09/25 03:27:41;;;;;;;9.70;4.63;;;;;;;;;;4961345;28;20214;-78
2021/09/25 03:30:10;;;;;;;14.13;5.00;;;;;;;;;;4962800;28;20221;-78
2021/09/25 03:32:37;;;;;;;11.60;4.70;;;;;;;;;;4962468;28;20666;-78
2021/09/25 03:35:04;;;;;;;11.03;4.80;;;;;;;;;;4966530;28;20670;-77
2021/09/25 03:37:32;;;;;;;7.60;4.80;;;;;;;;;;4966938;28;20212;-79
2021/09/25 03:40:00;;;;;;;11.73;4.80;;;;;;;;;;4962929;28;20213;-78
2021/09/25 03:42:27;;;;;;;13.13;4.67;;;;;;;;;;4961654;28;20206;-79
2021/09/25 03:44:54;;;;;;;11.63;4.37;;;;;;;;;;4964270;28;20221;-78
2021/09/25 03:47:22;;;;;;;15.50;4.23;;;;;;;;;;4964524;28;20296;-78
2021/09/25 03:49:49;;;;;;;8.23;3.97;;;;;;;;;;4963350;28;20234;-78
2021/09/25 03:52:16;;;;;;;8.03;4.43;;;;;;;;;;4962476;28;20240;-79
2021/09/25 03:54:43;;;;;;;9.17;4.47;;;;;;;;;;4967348;28;20501;-78
2021/09/25 03:57:13;;;;;;;9.43;4.23;;;;;;;;;;4975244;28;20201;-78
2021/09/25 03:59:41;;;;;;;10.47;4.57;;;;;;;;;;4966602;28;20263;-78
2021/09/25 04:02:08;;;;;;;9.03;4.57;;;;;;;;;;4961736;28;20209;-78
2021/09/25 04:04:35;;;;;;;8.53;4.37;;;;;;;;;;4965700;28;20305;-79
2021/09/25 04:07:02;;;;;;;9.83;4.53;;;;;;;;;;4965067;28;20214;-78
2021/09/25 04:09:29;;;;;;;9.90;4.77;;;;;;;;;;4966366;28;20280;-78
2021/09/25 04:11:56;;;;;;;9.63;4.20;;;;;;;;;;4961335;28;20296;-78
2021/09/25 04:14:25;;;;;;;7.57;4.17;;;;;;;;;;4964020;28;20202;-78
2021/09/25 04:16:52;;;;;;;6.47;4.10;;;;;;;;;;4963528;28;20689;-78
2021/09/25 04:19:19;;;;;;;8.50;5.03;;;;;;;;;;4964046;28;20300;-78
2021/09/25 04:21:47;;;;;;;8.60;5.17;;;;;;;;;;4964558;28;20209;-78
2021/09/25 04:24:14;;;;;;;9.40;5.07;;;;;;;;;;4964317;28;20237;-78
2021/09/25 04:26:41;;;;;;;9.73;5.47;;;;;;;;;;4963038;28;20230;-78
2021/09/25 04:29:08;;;;;;;9.63;5.77;;;;;;;;;;4964913;28;20232;-78
2021/09/25 04:31:37;;;;;;;9.40;5.70;;;;;;;;;;4964620;28;20206;-78
2021/09/25 04:34:04;;;;;;;16.50;6.30;;;;;;;;;;4964424;28;20214;-78
2021/09/25 04:36:31;;;;;;;19.00;5.93;;;;;;;;;;4963653;28;20242;-79
2021/09/25 04:38:59;;;;;;;10.90;5.67;;;;;;;;;;4962395;28;20202;-78
2021/09/25 04:41:26;;;;;;;12.37;5.70;;;;;;;;;;4964985;28;20229;-78
2021/09/25 04:43:53;;;;;;;29.77;7.13;;;;;;;;;;4962804;28;20245;-79
2021/09/25 04:46:20;;;;;;;17.80;5.87;;;;;;;;;;4963627;28;20689;-78
2021/09/25 04:48:49;;;;;;;11.20;5.50;;;;;;;;;;4961426;28;20957;-78
2021/09/25 04:51:16;;;;;;;14.30;6.43;;;;;;;;;;4968999;28;20278;-78
2021/09/25 04:53:46;;;;;;;11.13;5.53;;;;;;;;;;4968160;28;20284;-78
2021/09/25 04:56:13;;;;;;;10.50;4.83;;;;;;;;;;4967917;28;20222;-78
2021/09/25 04:58:40;;;;;;;14.30;6.33;;;;;;;;;;4970650;28;20206;-78
2021/09/25 05:01:07;;;;;;;11.47;5.43;;;;;;;;;;4973542;28;20213;-78
2021/09/25 05:03:35;;;;;;;11.30;5.70;;;;;;;;;;4978822;28;20232;-78
2021/09/25 05:06:03;;;;;;;12.17;4.83;;;;;;;;;;4981280;28;20234;-78
2021/09/25 05:08:33;;;;;;;9.10;4.93;;;;;;;;;;4971581;28;20229;-79
2021/09/25 05:11:01;;;;;;;8.37;5.13;;;;;;;;;;4973992;28;20237;-78
2021/09/25 05:13:28;;;;;;;9.60;4.90;;;;;;;;;;4967823;28;20602;-78
2021/09/25 05:15:55;;;;;;;11.87;5.00;;;;;;;;;;4969971;28;21113;-78
2021/09/25 05:18:22;;;;;;;9.10;4.60;;;;;;;;;;4972386;28;20213;-78
2021/09/25 05:20:49;;;;;;;14.33;4.80;;;;;;;;;;4971621;28;20220;-79
2021/09/25 05:23:18;;;;;;;9.07;5.30;;;;;;;;;;4970878;28;20202;-79
2021/09/25 05:25:45;;;;;;;8.10;4.50;;;;;;;;;;4971078;28;20293;-78
2021/09/25 05:28:12;;;;;;;7.97;4.40;;;;;;;;;;4969469;28;20221;-78
2021/09/25 05:30:40;;;;;;;10.10;4.23;;;;;;;;;;4969769;28;20229;-77
2021/09/25 05:33:07;;;;;;;6.77;4.10;;;;;;;;;;4968861;28;20302;-78
2021/09/25 05:35:34;;;;;;;13.10;4.63;;;;;;;;;;4969468;28;20225;-78
2021/09/25 05:38:02;;;;;;;7.30;4.23;;;;;;;;;;4971324;28;20210;-78
2021/09/25 05:40:30;;;;;;;8.17;4.60;;;;;;;;;;4969935;28;20647;-79
2021/09/25 05:42:58;;;;;;;7.10;4.00;;;;;;;;;;4969970;28;20207;-78
2021/09/25 05:45:25;;;;;;;8.97;3.90;;;;;;;;;;4968834;28;20308;-78
2021/09/25 05:47:52;;;;;;;6.07;3.97;;;;;;;;;;4970048;28;20276;-78
2021/09/25 05:50:19;;;;;;;8.87;3.90;;;;;;;;;;4971800;28;20221;-77
2021/09/25 05:52:46;;;;;;;7.33;4.33;;;;;;;;;;4968856;28;20273;-79
2021/09/25 05:55:14;;;;;;;9.17;3.77;;;;;;;;;;4968089;28;20233;-79
2021/09/25 05:57:43;;;;;;;7.00;3.90;;;;;;;;;;4970070;28;20206;-78
2021/09/25 06:00:11;;;;;;;7.33;4.33;;;;;;;;;;4969030;28;20201;-78
2021/09/25 06:02:39;;;;;;;6.70;3.80;;;;;;;;;;4969765;28;20210;-79
2021/09/25 06:05:07;;;;;;;6.80;4.03;;;;;;;;;;4969547;28;20225;-78
2021/09/25 06:07:34;;;;;;;7.27;4.00;;;;;;;;;;4967739;28;20225;-75
2021/09/25 06:10:01;;;;;;;6.27;4.03;;;;;;;;;;4965024;28;20245;-75
2021/09/25 06:14:59;;;;;;;7.03;3.70;;;;;;;;;;4940087;28;20233;-77
2021/09/25 06:17:26;;;;;;;6.67;3.60;;;;;;;;;;4946177;28;20904;-77
2021/09/25 06:19:53;;;;;;;6.73;3.63;;;;;;;;;;4944529;28;20204;-75
2021/09/25 06:22:20;;;;;;;10.30;4.03;;;;;;;;;;4942803;28;20211;-75
2021/09/25 06:24:48;;;;;;;6.03;3.30;;;;;;;;;;4941408;28;20316;-76
2021/09/25 06:27:15;;;;;;;5.87;3.17;;;;;;;;;;4942736;28;20212;-76
2021/09/25 06:29:42;;;;;;;4.70;3.40;;;;;;;;;;4944207;28;20230;-76
2021/09/25 06:32:10;;;;;;;7.53;3.63;;;;;;;;;;4940663;28;20549;-75
2021/09/25 06:34:38;;;;;;;4.50;3.20;;;;;;;;;;4945598;28;20208;-76
2021/09/25 06:37:05;;;;;;;5.80;3.43;;;;;;;;;;4941883;28;20297;-76
2021/09/25 06:39:32;;;;;;;6.03;3.63;;;;;;;;;;4946783;28;20207;-77
2021/09/25 06:42:00;;;;;;;5.37;3.60;;;;;;;;;;4942154;28;20290;-76
2021/09/25 06:44:27;;;;;;;4.87;3.40;;;;;;;;;;4946112;28;20213;-76
2021/09/25 06:46:54;;;;;;;6.27;3.33;;;;;;;;;;4947262;28;20320;-76
2021/09/25 06:49:24;;;;;;;6.93;3.47;;;;;;;;;;4945530;28;20705;-76
2021/09/25 06:51:51;;;;;;;6.47;3.30;;;;;;;;;;4944077;28;20221;-76
2021/09/25 06:54:18;;;;;;;10.73;3.17;;;;;;;;;;4942068;28;20683;-76
2021/09/25 06:56:45;;;;;;;5.70;3.00;;;;;;;;;;4942687;28;20210;-76
2021/09/25 06:59:12;;;;;;;6.87;3.20;;;;;;;;;;4943450;28;20684;-76
2021/09/25 07:01:39;;;;;;;5.67;3.27;;;;;;;;;;4944927;28;20206;-76
2021/09/25 07:04:07;;;;;;;6.00;3.10;;;;;;;;;;4942736;28;20210;-76
2021/09/25 07:06:39;;;;;;;4.43;2.63;;;;;;;;;;4945694;28;20331;-77
2021/09/25 07:09:06;;;;;;;4.30;2.40;;;;;;;;;;4945982;28;20249;-76
2021/09/25 07:11:33;;;;;;;4.07;2.53;;;;;;;;;;4943253;28;20207;-76
2021/09/25 07:14:00;;;;;;;3.17;1.87;;;;;;;;;;4944916;28;20210;-76
2021/09/25 07:16:28;;;;;;;5.97;2.20;;;;;;;;;;4944623;28;20248;-76
2021/09/25 07:18:55;;;;;;;3.47;2.03;;;;;;;;;;4947082;28;20829;-76
2021/09/25 07:21:22;;;;;;;5.30;2.27;;;;;;;;;;4945654;28;20293;-75
2021/09/25 07:23:51;;;;;;;4.57;2.10;;;;;;;;;;4946784;28;20210;-80
2021/09/25 07:26:18;;;;;;;3.00;1.87;;;;;;;;;;4949151;28;20375;-76
2021/09/25 07:28:45;;;;;;;3.10;2.20;;;;;;;;;;4969963;28;20185;-79
2021/09/25 07:31:12;;;;;;;4.47;2.30;;;;;;;;;;4952261;28;21194;-78
2021/09/25 07:33:39;;;;;;;3.33;2.13;;;;;;;;;;4951880;28;20257;-77
2021/09/25 07:36:07;;;;;;;2.97;2.20;;;;;;;;;;4953332;28;20219;-77
2021/09/25 07:38:34;;;;;;;4.73;2.30;;;;;;;;;;4946601;28;20233;-78
2021/09/25 07:41:02;;;;;;;4.30;2.50;;;;;;;;;;4943303;28;20206;-79
2021/09/25 07:43:30;;;;;;;3.13;1.70;;;;;;;;;;4944219;28;20198;-78
2021/09/25 07:46:09;;;;;;;3.30;1.93;;;;;;;;;;4945583;28;20326;-77
2021/09/25 07:48:36;;;;;;;2.67;2.07;;;;;;;;;;4942803;28;20294;-77
2021/09/25 07:51:03;;;;;;;2.97;2.27;;;;;;;;;;4943266;28;20699;-77
2021/09/25 07:53:30;;;;;;;2.10;1.77;;;;;;;;;;4941951;28;20559;-78
2021/09/25 07:56:01;;;;;;;4.00;2.20;;;;;;;;;;4942275;28;20312;-76
2021/09/25 07:58:29;;;;;;;5.40;2.10;;;;;;;;;;4943086;28;20573;-77
2021/09/25 08:00:56;;;;;;;2.87;2.10;;;;;;;;;;4942575;28;20714;-77
2021/09/25 08:03:23;;;;;;;6.20;2.47;;;;;;;;;;4941586;28;20207;-77
2021/09/25 08:05:51;;;;;;;3.00;2.20;;;;;;;;;;4944749;28;20762;-78
2021/09/25 08:08:18;;;;;;;3.60;1.83;;;;;;;;;;4945741;29;20694;-77
2021/09/25 08:10:45;;;;;;;4.87;2.13;;;;;;;;;;4946300;28;20228;-78
2021/09/25 08:13:12;;;;;;;5.43;2.40;;;;;;;;;;4941049;28;21425;-78
2021/09/25 08:15:41;;;;;;;3.07;2.00;;;;;;;;;;4942273;28;20234;-78
2021/09/25 08:18:08;;;;;;;2.67;2.00;;;;;;;;;;4941852;28;20556;-80
2021/09/25 08:20:35;;;;;;;2.40;1.70;;;;;;;;;;4943202;28;20214;-78
2021/09/25 08:23:02;;;;;;;3.17;2.00;;;;;;;;;;4944124;28;20688;-78
2021/09/25 08:25:29;;;;;;;2.87;1.60;;;;;;;;;;4945018;28;20317;-77
2021/09/25 08:27:57;;;;;;;2.23;1.73;;;;;;;;;;4942030;28;20211;-77
2021/09/25 08:30:25;;;;;;;2.47;1.70;;;;;;;;;;4941960;28;20231;-77
2021/09/25 08:32:54;;;;;;;3.90;1.90;;;;;;;;;;4944142;28;20258;-77
2021/09/25 08:35:22;;;;;;;2.43;1.80;;;;;;;;;;4948259;28;20226;-77
2021/09/25 08:37:50;;;;;;;3.70;2.10;;;;;;;;;;4943956;28;20210;-77
2021/09/25 08:40:21;;;;;;;5.80;2.10;;;;;;;;;;4944047;28;20245;-77
2021/09/25 08:42:48;;;;;;;4.83;1.73;;;;;;;;;;4943921;28;20199;-77
2021/09/25 08:45:16;;;;;;;5.27;1.77;;;;;;;;;;4943928;28;20599;-77
2021/09/25 08:47:43;;;;;;;3.63;1.80;;;;;;;;;;4944454;28;20214;-77
2021/09/25 08:50:13;;;;;;;3.70;2.20;;;;;;;;;;4947380;28;20226;-77
2021/09/25 08:52:42;;;;;;;3.10;2.00;;;;;;;;;;4948596;28;20211;-77
2021/09/25 08:55:10;;;;;;;3.73;2.03;;;;;;;;;;4945993;28;20253;-77
2021/09/25 08:57:39;;;;;;;4.97;2.27;;;;;;;;;;4950478;28;20210;-77
2021/09/25 09:00:25;;;;;;;3.53;2.00;;;;;;;;;;4949249;28;20607;-76
2021/09/25 09:02:52;;;;;;;5.00;2.50;;;;;;;;;;4946086;28;20234;-76
2021/09/25 09:05:28;;;;;;;5.00;2.30;;;;;;;;;;4946226;28;20259;-76
2021/09/25 09:07:57;;;;;;;2.80;2.10;;;;;;;;;;4945963;28;20309;-76
2021/09/25 09:10:28;;;;;;;3.90;2.20;;;;;;;;;;4944940;28;20217;-77
2021/09/25 09:12:56;;;;;;;4.63;2.63;;;;;;;;;;4945496;28;20206;-76
2021/09/25 09:15:31;;;;;;;5.67;1.93;;;;;;;;;;4947305;28;20269;-76
2021/09/25 09:18:00;;;;;;;3.10;2.30;;;;;;;;;;4948453;28;20221;-76
2021/09/25 09:20:31;;;;;;;5.67;2.43;;;;;;;;;;4948918;28;20235;-77
2021/09/25 09:23:13;;;;;;;3.80;2.50;;;;;;;;;;4949705;28;20956;-78
2021/09/25 09:25:42;;;;;;;3.97;2.70;;;;;;;;;;4947816;28;20231;-77
2021/09/25 09:28:13;;;;;;;6.87;3.40;;;;;;;;;;4950100;28;20215;-76
2021/09/25 09:30:46;;;;;;;5.73;3.10;;;;;;;;;;4948252;28;20222;-77
2021/09/25 09:33:27;;;;;;;3.70;2.43;;;;;;;;;;4941586;28;20236;-77
2021/09/25 09:36:11;;;;;;;5.67;2.47;;;;;;;;;;4944678;28;20313;-77
2021/09/25 09:38:39;;;;;;;6.43;3.07;;;;;;;;;;4945757;28;20206;-76
2021/09/25 09:41:06;;;;;;;12.73;3.90;;;;;;;;;;4942334;28;20669;-77
2021/09/25 09:43:33;;;;;;;3.50;2.70;;;;;;;;;;4942266;28;20844;-77
2021/09/25 09:46:00;;;;;;;3.20;2.30;;;;;;;;;;4942689;28;20234;-78
2021/09/25 09:48:27;;;;;;;12.30;5.67;;;;;;;;;;4942321;28;20206;-75
2021/09/25 09:50:57;;;;;;;6.77;3.00;;;;;;;;;;4941108;28;20225;-76
2021/09/25 09:53:24;;;;;;;7.40;3.70;;;;;;;;;;4941018;28;20210;-76
2021/09/25 09:55:51;;;;;;;7.73;4.87;;;;;;;;;;4943116;28;20223;-76
2021/09/25 09:58:18;;;;;;;12.60;8.00;;;;;;;;;;4940701;28;20202;-76
2021/09/25 10:00:45;;;;;;;12.83;8.00;;;;;;;;;;4943609;28;20203;-76
2021/09/25 10:03:13;;;;;;;4.73;2.93;;;;;;;;;;4942166;28;20226;-76
2021/09/25 10:05:40;;;;;;;11.93;6.80;;;;;;;;;;4943822;28;20233;-77
2021/09/25 10:08:09;;;;;;;5.20;3.00;;;;;;;;;;4943423;28;20210;-77
2021/09/25 10:10:37;;;;;;;3.73;2.50;;;;;;;;;;4942523;28;20225;-76
2021/09/25 10:13:04;;;;;;;5.43;3.03;;;;;;;;;;4943176;28;20216;-76
2021/09/25 10:15:31;;;;;;;6.40;2.73;;;;;;;;;;4942388;28;20367;-77
2021/09/25 10:17:59;;;;;;;4.50;2.50;;;;;;;;;;4941141;28;20297;-77
2021/09/25 10:20:26;;;;;;;5.90;2.63;;;;;;;;;;4940926;28;20209;-76
2021/09/25 10:22:54;;;;;;;10.63;5.87;;;;;;;;;;4933624;28;20297;-76
2021/09/25 10:25:23;;;;;;;6.77;3.60;;;;;;;;;;4934558;28;20226;-76
2021/09/25 10:27:56;;;;;;;3.10;2.17;;;;;;;;;;4940694;28;20366;-76
2021/09/25 10:30:35;;;;;;;3.43;2.53;;;;;;;;;;4939587;28;20233;-76
2021/09/25 10:33:14;;;;;;;5.30;2.77;;;;;;;;;;4940223;28;20218;-76
2021/09/25 10:35:41;;;;;;;7.77;2.70;;;;;;;;;;4937427;28;20245;-75
2021/09/25 10:38:08;;;;;;;5.03;2.77;;;;;;;;;;4938557;28;20234;-74
2021/09/25 10:40:39;;;;;;;2.77;2.43;;;;;;;;;;4941163;28;20682;-75
2021/09/25 10:43:16;;;;;;;3.80;2.33;;;;;;;;;;4936685;28;20199;-77
2021/09/25 10:45:43;;;;;;;7.77;2.63;;;;;;;;;;4939416;28;20249;-75
2021/09/25 10:48:12;;;;;;;5.10;2.73;;;;;;;;;;4938354;28;20657;-76
2021/09/25 10:50:48;;;;;;;5.03;2.40;;;;;;;;;;4937857;28;20231;-76
2021/09/25 10:53:16;;;;;;;4.40;2.70;;;;;;;;;;4935828;28;20209;-74
2021/09/25 10:55:45;;;;;;;3.70;2.20;;;;;;;;;;4938682;28;20218;-76
2021/09/25 10:58:23;;;;;;;7.40;2.43;;;;;;;;;;4942701;28;20661;-76
2021/09/25 11:00:51;;;;;;;4.30;2.30;;;;;;;;;;4940369;28;20854;-75
2021/09/25 11:03:37;;;;;;;9.13;2.67;;;;;;;;;;4941558;28;20302;-76
2021/09/25 11:06:05;;;;;;;5.63;2.43;;;;;;;;;;4941048;28;20289;-78
2021/09/25 11:08:32;;;;;;;5.73;2.03;;;;;;;;;;4939318;28;21544;-78
2021/09/25 11:11:08;;;;;;;3.87;2.10;;;;;;;;;;4938363;28;20222;-76
2021/09/25 11:13:54;;;;;;;6.37;2.47;;;;;;;;;;4941916;28;20285;-78
2021/09/25 11:16:42;;;;;;;4.33;2.17;;;;;;;;;;4938833;28;20245;-74
2021/09/25 11:19:11;;;;;;;3.03;1.87;;;;;;;;;;4938799;28;20206;-79
2021/09/25 11:21:38;;;;;;;6.50;2.33;;;;;;;;;;4944000;28;20554;-78
2021/09/25 11:24:06;;;;;;;3.80;2.00;;;;;;;;;;4941756;28;20289;-78
2021/09/25 11:26:39;;;;;;;8.73;2.00;;;;;;;;;;4943128;28;20226;-78
2021/09/25 11:29:07;;;;;;;2.83;1.80;;;;;;;;;;4941708;28;20646;-78
2021/09/25 11:31:35;;;;;;;3.27;1.80;;;;;;;;;;4941416;28;20325;-78
2021/09/25 11:34:03;;;;;;;3.07;1.87;;;;;;;;;;4940883;28;20257;-78
2021/09/25 11:36:30;;;;;;;4.63;1.97;;;;;;;;;;4944677;28;20755;-77
2021/09/25 11:38:57;;;;;;;4.17;1.97;;;;;;;;;;4941951;28;20213;-77
2021/09/25 11:41:24;;;;;;;3.37;1.80;;;;;;;;;;4945147;28;20753;-77
2021/09/25 11:43:58;;;;;;;3.43;1.70;;;;;;;;;;4939181;28;20552;-77
2021/09/25 11:46:26;;;;;;;3.00;2.00;;;;;;;;;;4942010;28;20229;-77
2021/09/25 11:48:57;;;;;;;2.73;1.70;;;;;;;;;;4943690;28;20210;-76
2021/09/25 11:51:24;;;;;;;4.90;2.43;;;;;;;;;;4954249;28;20218;-77
2021/09/25 11:53:56;;;;;;;4.63;1.83;;;;;;;;;;4947896;28;20728;-78
2021/09/25 11:56:27;;;;;;;2.67;1.53;;;;;;;;;;4942559;28;20242;-76
2021/09/25 11:58:54;;;;;;;3.83;1.93;;;;;;;;;;4941548;28;20208;-77
2021/09/25 12:01:23;;;;;;;4.63;1.97;;;;;;;;;;4942796;28;20233;-77
2021/09/25 12:03:50;;;;;;;4.27;1.67;;;;;;;;;;4942269;28;20206;-76
2021/09/25 12:06:17;;;;;;;2.97;1.93;;;;;;;;;;4941805;28;20791;-77
2021/09/25 12:08:49;;;;;;;4.13;1.87;;;;;;;;;;4947036;28;20238;-77
2021/09/25 12:11:17;;;;;;;3.13;2.00;;;;;;;;;;4946559;28;20360;-77
2021/09/25 12:13:45;;;;;;;3.63;1.63;;;;;;;;;;4966820;23;20774;-76
2021/09/25 12:16:13;;;;;;;2.57;1.50;;;;;;;;;;4963819;28;20691;-76
2021/09/25 12:18:42;;;;;;;3.20;1.60;;;;;;;;;;4963469;28;20202;-77
2021/09/25 12:21:11;;;;;;;3.67;1.60;;;;;;;;;;4965618;28;20202;-76
2021/09/25 12:23:41;;;;;;;3.43;1.90;;;;;;;;;;4963818;28;20324;-77
2021/09/25 12:26:10;;;;;;;2.70;1.70;;;;;;;;;;4972909;28;20285;-76
2021/09/25 12:28:45;;;;;;;3.43;1.43;;;;;;;;;;4971037;28;20292;-76
2021/09/25 12:31:12;;;;;;;4.07;1.40;;;;;;;;;;4967646;28;20691;-77
2021/09/25 12:33:48;;;;;;;4.53;1.47;;;;;;;;;;4967175;28;20201;-76
2021/09/25 12:36:17;;;;;;;2.37;1.40;;;;;;;;;;4965036;28;20347;-75
2021/09/25 12:38:46;;;;;;;1.77;1.50;;;;;;;;;;4960141;28;20207;-75
2021/09/25 12:41:15;;;;;;;3.70;1.70;;;;;;;;;;4959869;28;20204;-74
2021/09/25 12:43:43;;;;;;;3.00;1.60;;;;;;;;;;4967502;28;20225;-77
2021/09/25 12:46:12;;;;;;;4.10;1.60;;;;;;;;;;4962837;28;20615;-74
2021/09/25 12:48:59;;;;;;;2.70;1.83;;;;;;;;;;4961631;28;20209;-75
2021/09/25 12:51:29;;;;;;;2.27;1.40;;;;;;;;;;4965601;28;20340;-75
2021/09/25 12:53:57;;;;;;;4.03;1.80;;;;;;;;;;4964918;28;20223;-76
2021/09/25 12:56:29;;;;;;;5.07;1.60;;;;;;;;;;4964881;28;20321;-76
2021/09/25 12:58:59;;;;;;;3.10;1.70;;;;;;;;;;4967887;28;20214;-76
2021/09/25 13:01:27;;;;;;;2.07;1.20;;;;;;;;;;4963602;28;20206;-76
2021/09/25 13:03:54;;;;;;;2.00;1.40;;;;;;;;;;4968045;28;20728;-75
2021/09/25 13:06:23;;;;;;;3.80;1.67;;;;;;;;;;4963565;28;20601;-75
2021/09/25 13:08:59;;;;;;;2.10;1.43;;;;;;;;;;4964608;28;20209;-75
2021/09/25 13:11:26;;;;;;;2.57;1.80;;;;;;;;;;4966224;28;20221;-76
2021/09/25 13:14:10;;;;;;;3.37;1.33;;;;;;;;;;4964087;28;20220;-77
2021/09/25 13:16:37;;;;;;;2.40;1.50;;;;;;;;;;4962778;28;20233;-77
2021/09/25 13:19:04;;;;;;;3.83;1.30;;;;;;;;;;4963090;28;20217;-77
2021/09/25 13:21:32;;;;;;;5.47;1.63;;;;;;;;;;4965429;28;20300;-77
2021/09/25 13:24:01;;;;;;;1.80;1.20;;;;;;;;;;4961870;28;20228;-77
2021/09/25 13:26:28;;;;;;;1.43;1.10;;;;;;;;;;4966413;28;20754;-76
2021/09/25 13:28:56;;;;;;;1.90;1.10;;;;;;;;;;4964272;28;20213;-76
2021/09/25 13:31:23;;;;;;;1.90;1.20;;;;;;;;;;4962945;28;20230;-77
2021/09/25 13:33:50;;;;;;;2.43;1.30;;;;;;;;;;4962759;28;20242;-77
2021/09/25 13:36:17;;;;;;;1.90;1.43;;;;;;;;;;4964108;28;20322;-77
2021/09/25 13:38:45;;;;;;;1.57;1.10;;;;;;;;;;4964631;28;20653;-76
2021/09/25 13:41:14;;;;;;;4.43;1.50;;;;;;;;;;4961803;28;20202;-76
2021/09/25 13:43:41;;;;;;;4.00;1.50;;;;;;;;;;4964678;28;20215;-76
2021/09/25 13:46:08;;;;;;;3.13;1.00;;;;;;;;;;4960271;28;20660;-76
2021/09/25 13:48:35;;;;;;;4.23;1.43;;;;;;;;;;4963867;28;20209;-76
2021/09/25 13:51:02;;;;;;;3.53;1.27;;;;;;;;;;4960902;28;20205;-76
2021/09/25 13:53:30;;;;;;;3.87;1.23;;;;;;;;;;4965605;28;20240;-76
2021/09/25 13:55:57;;;;;;;2.57;1.57;;;;;;;;;;4964557;28;20340;-77
2021/09/25 13:58:27;;;;;;;2.17;1.30;;;;;;;;;;4965435;28;20218;-77
2021/09/25 14:00:55;;;;;;;2.43;1.27;;;;;;;;;;4971119;28;20213;-77
2021/09/25 14:03:22;;;;;;;1.60;1.30;;;;;;;;;;4972462;28;20201;-78
2021/09/25 14:05:50;;;;;;;2.10;1.50;;;;;;;;;;4968989;28;20244;-77
2021/09/25 14:08:17;;;;;;;1.50;1.30;;;;;;;;;;4964702;28;20249;-77
2021/09/25 14:10:44;;;;;;;2.23;1.53;;;;;;;;;;4965135;28;20212;-77
2021/09/25 14:13:12;;;;;;;1.87;1.20;;;;;;;;;;4964090;28;20312;-77
2021/09/25 14:15:41;;;;;;;3.77;1.27;;;;;;;;;;4965613;28;20230;-77
2021/09/25 14:18:09;;;;;;;2.20;1.63;;;;;;;;;;4959876;28;20293;-77
2021/09/25 14:20:41;;;;;;;2.10;1.40;;;;;;;;;;4962479;28;20222;-77
2021/09/25 14:23:09;;;;;;;2.10;1.50;;;;;;;;;;4961572;28;20210;-77
2021/09/25 14:25:40;;;;;;;1.63;1.30;;;;;;;;;;4963286;28;20717;-77
2021/09/25 14:28:08;;;;;;;2.60;1.57;;;;;;;;;;4963856;28;20584;-77
2021/09/25 14:30:35;;;;;;;3.40;1.43;;;;;;;;;;4964035;28;20292;-77
2021/09/25 14:33:05;;;;;;;2.00;1.50;;;;;;;;;;4961003;28;20312;-77
2021/09/25 14:35:32;;;;;;;2.70;1.70;;;;;;;;;;4960243;28;20246;-77
2021/09/25 14:37:59;;;;;;;4.40;1.40;;;;;;;;;;4964191;28;20210;-75
2021/09/25 14:40:27;;;;;;;2.87;1.50;;;;;;;;;;4963162;28;20210;-74
2021/09/25 14:42:54;;;;;;;2.13;1.40;;;;;;;;;;4964876;28;20198;-75
2021/09/25 14:45:21;;;;;;;4.40;1.50;;;;;;;;;;4960989;28;20241;-75
2021/09/25 14:47:48;;;;;;;3.73;1.60;;;;;;;;;;4961021;28;20511;-75
2021/09/25 14:50:17;;;;;;;3.60;1.70;;;;;;;;;;4960665;28;20202;-75
2021/09/25 14:52:44;;;;;;;2.57;1.60;;;;;;;;;;4963508;28;20234;-76
2021/09/25 14:55:12;;;;;;;3.27;1.47;;;;;;;;;;4962121;28;20232;-76
2021/09/25 14:57:39;;;;;;;3.47;1.47;;;;;;;;;;4962532;28;20210;-75
2021/09/25 15:00:07;;;;;;;4.67;3.53;;;;;;;;;;4960458;28;20211;-75